sensor_id;sensor_type;location;lat;lon;timestamp;temperature;humidity
21627;DHT22;10975;47.872;12.972;2022-08-19T00:01:34;19.50;99.90
21627;DHT22;10975;47.872;12.972;2022-08-19T00:04:04;19.50;99.90
21627;DHT22;10975;47.872;12.972;2022-08-19T00:06:31;19.50;99.90
21627;DHT22;10975;47.872;12.972;2022-08-19T00:08:58;19.40;99.90
21627;DHT22;10975;47.872;12.972;2022-08-19T00:11:27;19.40;99.90
21627;DHT22;10975;47.872;12.972;2022-08-19T00:13:54;19.40;99.90
21627;DHT22;10975;47.872;12.972;2022-08-19T00:16:22;19.40;99.90
21627;DHT22;10975;47.872;12.972;2022-08-19T00:18:51;19.40;99.90
21627;DHT22;10975;47.872;12.972;2022-08-19T00:21:18;19.40;99.90
21627;DHT22;10975;47.872;12.972;2022-08-19T00:23:45;19.40;99.90
21627;DHT22;10975;47.872;12.972;2022-08-19T00:26:11;19.50;99.90
21627;DHT22;10975;47.872;12.972;2022-08-19T00:28:40;19.50;99.90
21627;DHT22;10975;47.872;12.972;2022-08-19T00:31:08;19.60;99.90
21627;DHT22;10975;47.872;12.972;2022-08-19T00:33:35;19.60;99.90
21627;DHT22;10975;47.872;12.972;2022-08-19T00:36:03;19.70;99.90
21627;DHT22;10975;47.872;12.972;2022-08-19T00:38:30;19.70;99.90
21627;DHT22;10975;47.872;12.972;2022-08-19T00:41:07;19.70;99.90
21627;DHT22;10975;47.872;12.972;2022-08-19T00:43:34;19.70;99.90
21627;DHT22;10975;47.872;12.972;2022-08-19T00:46:00;19.70;99.90
21627;DHT22;10975;47.872;12.972;2022-08-19T00:48:31;19.70;99.90
21627;DHT22;10975;47.872;12.972;2022-08-19T00:50:58;19.70;99.90
21627;DHT22;10975;47.872;12.972;2022-08-19T00:53:26;19.70;99.90
21627;DHT22;10975;47.872;12.972;2022-08-19T00:55:54;19.70;99.90
21627;DHT22;10975;47.872;12.972;2022-08-19T00:58:22;19.70;99.90
21627;DHT22;10975;47.872;12.972;2022-08-19T01:00:50;19.70;99.90
21627;DHT22;10975;47.872;12.972;2022-08-19T01:03:18;19.70;99.90
21627;DHT22;10975;47.872;12.972;2022-08-19T01:05:45;19.70;99.90
21627;DHT22;10975;47.872;12.972;2022-08-19T01:08:13;19.70;99.90
21627;DHT22;10975;47.872;12.972;2022-08-19T01:10:43;19.70;99.90
21627;DHT22;10975;47.872;12.972;2022-08-19T01:13:13;19.70;99.90
21627;DHT22;10975;47.872;12.972;2022-08-19T01:15:41;19.60;99.90
21627;DHT22;10975;47.872;12.972;2022-08-19T01:18:11;19.60;99.90
21627;DHT22;10975;47.872;12.972;2022-08-19T01:20:38;19.50;99.90
21627;DHT22;10975;47.872;12.972;2022-08-19T01:23:05;19.50;99.90
21627;DHT22;10975;47.872;12.972;2022-08-19T01:25:34;19.50;99.90
21627;DHT22;10975;47.872;12.972;2022-08-19T01:28:04;19.50;99.90
21627;DHT22;10975;47.872;12.972;2022-08-19T01:30:36;19.50;99.90
21627;DHT22;10975;47.872;12.972;2022-08-19T01:33:03;19.60;99.90
21627;DHT22;10975;47.872;12.972;2022-08-19T01:35:32;19.60;99.90
21627;DHT22;10975;47.872;12.972;2022-08-19T01:38:00;19.60;99.90
21627;DHT22;10975;47.872;12.972;2022-08-19T01:40:29;19.60;99.90
21627;DHT22;10975;47.872;12.972;2022-08-19T01:42:57;19.70;99.90
21627;DHT22;10975;47.872;12.972;2022-08-19T01:45:25;19.70;99.90
21627;DHT22;10975;47.872;12.972;2022-08-19T01:47:52;19.70;99.90
21627;DHT22;10975;47.872;12.972;2022-08-19T01:50:29;19.60;99.90
21627;DHT22;10975;47.872;12.972;2022-08-19T01:52:56;19.60;99.90
21627;DHT22;10975;47.872;12.972;2022-08-19T01:55:32;19.60;99.90
21627;DHT22;10975;47.872;12.972;2022-08-19T01:58:00;19.70;99.90
21627;DHT22;10975;47.872;12.972;2022-08-19T02:00:29;19.70;99.90
21627;DHT22;10975;47.872;12.972;2022-08-19T02:02:56;19.80;99.90
21627;DHT22;10975;47.872;12.972;2022-08-19T02:05:23;19.80;99.90
21627;DHT22;10975;47.872;12.972;2022-08-19T02:07:50;19.80;99.90
21627;DHT22;10975;47.872;12.972;2022-08-19T02:10:18;19.80;99.90
21627;DHT22;10975;47.872;12.972;2022-08-19T02:12:45;19.70;99.90
21627;DHT22;10975;47.872;12.972;2022-08-19T02:15:13;19.70;99.90
21627;DHT22;10975;47.872;12.972;2022-08-19T02:17:40;19.60;99.90
21627;DHT22;10975;47.872;12.972;2022-08-19T02:20:07;19.60;99.90
21627;DHT22;10975;47.872;12.972;2022-08-19T02:22:34;19.50;99.90
21627;DHT22;10975;47.872;12.972;2022-08-19T02:25:01;19.50;99.90
21627;DHT22;10975;47.872;12.972;2022-08-19T02:27:28;19.50;99.90
21627;DHT22;10975;47.872;12.972;2022-08-19T02:29:55;19.50;99.90
21627;DHT22;10975;47.872;12.972;2022-08-19T02:32:22;19.60;99.90
21627;DHT22;10975;47.872;12.972;2022-08-19T02:34:48;19.60;99.90
21627;DHT22;10975;47.872;12.972;2022-08-19T02:37:15;19.70;99.90
21627;DHT22;10975;47.872;12.972;2022-08-19T02:40:01;19.70;99.90
21627;DHT22;10975;47.872;12.972;2022-08-19T02:42:28;19.70;99.90
21627;DHT22;10975;47.872;12.972;2022-08-19T02:44:55;19.70;99.90
21627;DHT22;10975;47.872;12.972;2022-08-19T02:47:22;19.70;99.90
21627;DHT22;10975;47.872;12.972;2022-08-19T02:49:49;19.70;99.90
21627;DHT22;10975;47.872;12.972;2022-08-19T02:52:18;19.80;99.90
21627;DHT22;10975;47.872;12.972;2022-08-19T02:54:45;19.80;99.90
21627;DHT22;10975;47.872;12.972;2022-08-19T02:57:12;19.80;99.90
21627;DHT22;10975;47.872;12.972;2022-08-19T02:59:38;19.80;99.90
21627;DHT22;10975;47.872;12.972;2022-08-19T03:02:06;19.80;99.90
21627;DHT22;10975;47.872;12.972;2022-08-19T03:04:33;19.80;99.90
21627;DHT22;10975;47.872;12.972;2022-08-19T03:06:59;19.80;99.90
21627;DHT22;10975;47.872;12.972;2022-08-19T03:09:37;19.80;99.90
21627;DHT22;10975;47.872;12.972;2022-08-19T03:12:04;19.90;99.90
21627;DHT22;10975;47.872;12.972;2022-08-19T03:14:31;19.80;99.90
21627;DHT22;10975;47.872;12.972;2022-08-19T03:16:58;19.90;99.90
21627;DHT22;10975;47.872;12.972;2022-08-19T03:19:25;19.90;99.90
21627;DHT22;10975;47.872;12.972;2022-08-19T03:21:52;19.90;99.90
21627;DHT22;10975;47.872;12.972;2022-08-19T03:24:19;19.90;99.90
21627;DHT22;10975;47.872;12.972;2022-08-19T03:26:47;19.90;99.90
21627;DHT22;10975;47.872;12.972;2022-08-19T03:29:15;19.90;99.90
21627;DHT22;10975;47.872;12.972;2022-08-19T03:32:00;19.90;99.90
21627;DHT22;10975;47.872;12.972;2022-08-19T03:34:30;19.90;99.90
21627;DHT22;10975;47.872;12.972;2022-08-19T03:36:59;19.90;99.90
21627;DHT22;10975;47.872;12.972;2022-08-19T03:39:29;19.90;99.90
21627;DHT22;10975;47.872;12.972;2022-08-19T03:41:57;19.90;99.90
21627;DHT22;10975;47.872;12.972;2022-08-19T03:44:46;19.90;99.90
21627;DHT22;10975;47.872;12.972;2022-08-19T03:47:13;19.90;99.90
21627;DHT22;10975;47.872;12.972;2022-08-19T03:49:43;19.90;99.90
21627;DHT22;10975;47.872;12.972;2022-08-19T03:52:10;19.90;99.90
21627;DHT22;10975;47.872;12.972;2022-08-19T03:54:37;19.90;99.90
21627;DHT22;10975;47.872;12.972;2022-08-19T03:57:05;19.90;99.90
21627;DHT22;10975;47.872;12.972;2022-08-19T03:59:32;19.90;99.90
21627;DHT22;10975;47.872;12.972;2022-08-19T04:02:00;19.90;99.90
21627;DHT22;10975;47.872;12.972;2022-08-19T04:04:28;19.90;99.90
21627;DHT22;10975;47.872;12.972;2022-08-19T04:06:57;19.90;99.90
21627;DHT22;10975;47.872;12.972;2022-08-19T04:09:24;19.80;99.90
21627;DHT22;10975;47.872;12.972;2022-08-19T04:11:52;19.80;99.90
21627;DHT22;10975;47.872;12.972;2022-08-19T04:14:23;19.80;99.90
21627;DHT22;10975;47.872;12.972;2022-08-19T04:16:51;19.80;99.90
21627;DHT22;10975;47.872;12.972;2022-08-19T04:19:18;19.80;99.90
21627;DHT22;10975;47.872;12.972;2022-08-19T04:21:46;19.80;99.90
21627;DHT22;10975;47.872;12.972;2022-08-19T04:24:13;19.80;99.90
21627;DHT22;10975;47.872;12.972;2022-08-19T04:26:40;19.80;99.90
21627;DHT22;10975;47.872;12.972;2022-08-19T04:29:11;19.80;99.90
21627;DHT22;10975;47.872;12.972;2022-08-19T04:31:39;19.70;99.90
21627;DHT22;10975;47.872;12.972;2022-08-19T04:34:07;19.70;99.90
21627;DHT22;10975;47.872;12.972;2022-08-19T04:36:34;19.80;99.90
21627;DHT22;10975;47.872;12.972;2022-08-19T04:39:09;19.70;99.90
21627;DHT22;10975;47.872;12.972;2022-08-19T04:41:36;19.80;99.90
21627;DHT22;10975;47.872;12.972;2022-08-19T04:44:21;19.70;99.90
21627;DHT22;10975;47.872;12.972;2022-08-19T04:46:48;19.70;99.90
21627;DHT22;10975;47.872;12.972;2022-08-19T04:49:20;19.70;99.90
21627;DHT22;10975;47.872;12.972;2022-08-19T04:51:49;19.70;99.90
21627;DHT22;10975;47.872;12.972;2022-08-19T04:54:17;19.70;99.90
21627;DHT22;10975;47.872;12.972;2022-08-19T04:57:05;19.70;99.90
21627;DHT22;10975;47.872;12.972;2022-08-19T04:59:33;19.70;99.90
21627;DHT22;10975;47.872;12.972;2022-08-19T05:02:00;19.60;99.90
21627;DHT22;10975;47.872;12.972;2022-08-19T05:04:27;19.60;99.90
21627;DHT22;10975;47.872;12.972;2022-08-19T05:06:57;19.60;99.90
21627;DHT22;10975;47.872;12.972;2022-08-19T05:09:27;19.50;99.90
21627;DHT22;10975;47.872;12.972;2022-08-19T05:12:14;19.60;99.90
21627;DHT22;10975;47.872;12.972;2022-08-19T05:14:42;19.70;99.90
21627;DHT22;10975;47.872;12.972;2022-08-19T05:17:09;19.80;99.90
21627;DHT22;10975;47.872;12.972;2022-08-19T05:19:55;19.80;99.90
21627;DHT22;10975;47.872;12.972;2022-08-19T05:22:43;19.90;99.90
21627;DHT22;10975;47.872;12.972;2022-08-19T05:25:11;19.90;99.90
21627;DHT22;10975;47.872;12.972;2022-08-19T05:27:40;19.90;99.90
21627;DHT22;10975;47.872;12.972;2022-08-19T05:30:07;20.00;99.90
21627;DHT22;10975;47.872;12.972;2022-08-19T05:32:34;20.00;99.90
21627;DHT22;10975;47.872;12.972;2022-08-19T05:35:01;20.00;99.90
21627;DHT22;10975;47.872;12.972;2022-08-19T05:37:28;20.00;99.90
21627;DHT22;10975;47.872;12.972;2022-08-19T05:39:54;20.00;99.90
21627;DHT22;10975;47.872;12.972;2022-08-19T05:42:22;20.00;99.90
21627;DHT22;10975;47.872;12.972;2022-08-19T05:44:49;20.00;99.90
21627;DHT22;10975;47.872;12.972;2022-08-19T05:47:16;20.10;99.90
21627;DHT22;10975;47.872;12.972;2022-08-19T05:49:43;20.20;99.90
21627;DHT22;10975;47.872;12.972;2022-08-19T05:52:11;20.30;99.90
21627;DHT22;10975;47.872;12.972;2022-08-19T05:54:39;20.30;99.90
21627;DHT22;10975;47.872;12.972;2022-08-19T05:57:09;20.40;99.90
21627;DHT22;10975;47.872;12.972;2022-08-19T05:59:38;20.40;99.90
21627;DHT22;10975;47.872;12.972;2022-08-19T06:02:05;20.50;99.90
21627;DHT22;10975;47.872;12.972;2022-08-19T06:04:33;20.60;99.90
21627;DHT22;10975;47.872;12.972;2022-08-19T06:07:00;20.70;99.90
21627;DHT22;10975;47.872;12.972;2022-08-19T06:09:38;20.80;99.90
21627;DHT22;10975;47.872;12.972;2022-08-19T06:12:05;20.90;99.90
21627;DHT22;10975;47.872;12.972;2022-08-19T06:14:33;21.00;99.90
21627;DHT22;10975;47.872;12.972;2022-08-19T06:17:05;21.00;99.90
21627;DHT22;10975;47.872;12.972;2022-08-19T06:19:33;21.00;99.90
21627;DHT22;10975;47.872;12.972;2022-08-19T06:22:06;21.00;99.90
21627;DHT22;10975;47.872;12.972;2022-08-19T06:24:33;21.00;99.90
21627;DHT22;10975;47.872;12.972;2022-08-19T06:26:59;21.10;99.90
21627;DHT22;10975;47.872;12.972;2022-08-19T06:29:27;21.10;99.90
21627;DHT22;10975;47.872;12.972;2022-08-19T06:31:55;21.20;99.90
21627;DHT22;10975;47.872;12.972;2022-08-19T06:34:23;21.30;99.90
21627;DHT22;10975;47.872;12.972;2022-08-19T06:36:50;21.40;99.90
21627;DHT22;10975;47.872;12.972;2022-08-19T06:39:19;21.40;99.90
21627;DHT22;10975;47.872;12.972;2022-08-19T06:41:49;21.40;99.90
21627;DHT22;10975;47.872;12.972;2022-08-19T06:44:21;21.30;99.90
21627;DHT22;10975;47.872;12.972;2022-08-19T06:46:51;21.30;99.90
21627;DHT22;10975;47.872;12.972;2022-08-19T06:49:20;21.30;99.90
21627;DHT22;10975;47.872;12.972;2022-08-19T06:51:48;21.30;99.90
21627;DHT22;10975;47.872;12.972;2022-08-19T06:54:17;21.30;99.90
21627;DHT22;10975;47.872;12.972;2022-08-19T06:56:46;21.20;99.90
21627;DHT22;10975;47.872;12.972;2022-08-19T06:59:14;21.30;99.90
21627;DHT22;10975;47.872;12.972;2022-08-19T07:01:43;21.40;99.90
21627;DHT22;10975;47.872;12.972;2022-08-19T07:04:12;21.40;99.90
21627;DHT22;10975;47.872;12.972;2022-08-19T07:06:40;21.40;99.90
21627;DHT22;10975;47.872;12.972;2022-08-19T07:09:11;21.50;99.90
21627;DHT22;10975;47.872;12.972;2022-08-19T07:11:38;21.60;99.90
21627;DHT22;10975;47.872;12.972;2022-08-19T07:14:05;21.70;99.90
21627;DHT22;10975;47.872;12.972;2022-08-19T07:16:45;21.70;99.90
21627;DHT22;10975;47.872;12.972;2022-08-19T07:19:13;21.80;99.90
21627;DHT22;10975;47.872;12.972;2022-08-19T07:21:44;21.70;99.90
21627;DHT22;10975;47.872;12.972;2022-08-19T07:24:12;21.70;99.90
21627;DHT22;10975;47.872;12.972;2022-08-19T07:26:40;21.80;99.90
21627;DHT22;10975;47.872;12.972;2022-08-19T07:29:07;21.80;99.90
21627;DHT22;10975;47.872;12.972;2022-08-19T07:31:34;21.90;99.90
21627;DHT22;10975;47.872;12.972;2022-08-19T07:34:05;22.00;99.90
21627;DHT22;10975;47.872;12.972;2022-08-19T07:36:36;21.90;99.90
21627;DHT22;10975;47.872;12.972;2022-08-19T07:39:05;21.80;99.90
21627;DHT22;10975;47.872;12.972;2022-08-19T07:41:34;21.80;99.90
21627;DHT22;10975;47.872;12.972;2022-08-19T07:44:01;21.80;99.90
21627;DHT22;10975;47.872;12.972;2022-08-19T07:46:34;21.70;99.90
21627;DHT22;10975;47.872;12.972;2022-08-19T07:49:01;21.70;99.90
21627;DHT22;10975;47.872;12.972;2022-08-19T07:51:28;21.60;99.90
21627;DHT22;10975;47.872;12.972;2022-08-19T07:54:03;21.80;99.90
21627;DHT22;10975;47.872;12.972;2022-08-19T07:56:30;21.80;99.90
21627;DHT22;10975;47.872;12.972;2022-08-19T07:58:56;21.70;99.90
21627;DHT22;10975;47.872;12.972;2022-08-19T08:01:24;21.70;99.90
21627;DHT22;10975;47.872;12.972;2022-08-19T08:03:52;21.50;99.90
21627;DHT22;10975;47.872;12.972;2022-08-19T08:06:38;21.40;99.90
21627;DHT22;10975;47.872;12.972;2022-08-19T08:09:24;21.40;99.90
21627;DHT22;10975;47.872;12.972;2022-08-19T08:11:53;21.30;99.90
21627;DHT22;10975;47.872;12.972;2022-08-19T08:14:21;21.40;99.90
21627;DHT22;10975;47.872;12.972;2022-08-19T08:17:00;21.40;99.90
21627;DHT22;10975;47.872;12.972;2022-08-19T08:19:36;21.50;99.90
21627;DHT22;10975;47.872;12.972;2022-08-19T08:22:03;21.60;99.90
21627;DHT22;10975;47.872;12.972;2022-08-19T08:24:32;21.60;99.90
21627;DHT22;10975;47.872;12.972;2022-08-19T08:27:00;21.80;99.90
21627;DHT22;10975;47.872;12.972;2022-08-19T08:29:28;21.80;99.90
21627;DHT22;10975;47.872;12.972;2022-08-19T08:32:00;22.00;99.90
21627;DHT22;10975;47.872;12.972;2022-08-19T08:34:27;22.10;99.90
21627;DHT22;10975;47.872;12.972;2022-08-19T08:36:54;22.20;99.90
21627;DHT22;10975;47.872;12.972;2022-08-19T08:39:21;22.30;99.90
21627;DHT22;10975;47.872;12.972;2022-08-19T08:41:53;22.40;99.90
21627;DHT22;10975;47.872;12.972;2022-08-19T08:44:29;22.50;99.90
21627;DHT22;10975;47.872;12.972;2022-08-19T08:47:02;22.60;99.90
21627;DHT22;10975;47.872;12.972;2022-08-19T08:49:36;22.80;99.90
21627;DHT22;10975;47.872;12.972;2022-08-19T08:52:10;22.90;99.90
21627;DHT22;10975;47.872;12.972;2022-08-19T08:54:45;22.90;99.90
21627;DHT22;10975;47.872;12.972;2022-08-19T08:57:24;23.00;99.90
21627;DHT22;10975;47.872;12.972;2022-08-19T08:59:55;23.00;99.90
21627;DHT22;10975;47.872;12.972;2022-08-19T09:02:24;23.10;99.90
21627;DHT22;10975;47.872;12.972;2022-08-19T09:04:53;23.20;99.90
21627;DHT22;10975;47.872;12.972;2022-08-19T09:10:28;22.90;99.90
21627;DHT22;10975;47.872;12.972;2022-08-19T09:15:36;23.00;99.90
21627;DHT22;10975;47.872;12.972;2022-08-19T09:18:05;22.90;99.90
21627;DHT22;10975;47.872;12.972;2022-08-19T09:20:32;23.00;99.90
21627;DHT22;10975;47.872;12.972;2022-08-19T09:22:59;23.10;99.90
21627;DHT22;10975;47.872;12.972;2022-08-19T09:25:26;23.10;99.90
21627;DHT22;10975;47.872;12.972;2022-08-19T09:27:55;23.00;99.90
21627;DHT22;10975;47.872;12.972;2022-08-19T09:30:29;23.00;99.90
21627;DHT22;10975;47.872;12.972;2022-08-19T09:32:57;22.90;99.90
21627;DHT22;10975;47.872;12.972;2022-08-19T09:35:25;22.90;99.90
21627;DHT22;10975;47.872;12.972;2022-08-19T09:37:54;22.90;99.90
21627;DHT22;10975;47.872;12.972;2022-08-19T09:40:23;23.20;99.90
21627;DHT22;10975;47.872;12.972;2022-08-19T09:42:51;23.30;99.90
21627;DHT22;10975;47.872;12.972;2022-08-19T09:45:20;23.40;99.90
21627;DHT22;10975;47.872;12.972;2022-08-19T09:47:49;23.40;99.90
21627;DHT22;10975;47.872;12.972;2022-08-19T09:50:20;23.40;99.90
21627;DHT22;10975;47.872;12.972;2022-08-19T09:52:47;23.50;99.90
21627;DHT22;10975;47.872;12.972;2022-08-19T09:55:23;23.50;99.90
21627;DHT22;10975;47.872;12.972;2022-08-19T09:57:58;23.40;99.90
21627;DHT22;10975;47.872;12.972;2022-08-19T10:00:24;23.40;99.90
21627;DHT22;10975;47.872;12.972;2022-08-19T10:02:51;23.40;99.90
21627;DHT22;10975;47.872;12.972;2022-08-19T10:05:18;23.70;99.90
21627;DHT22;10975;47.872;12.972;2022-08-19T10:08:08;23.90;99.90
21627;DHT22;10975;47.872;12.972;2022-08-19T10:10:42;24.20;99.90
21627;DHT22;10975;47.872;12.972;2022-08-19T10:13:14;24.30;99.90
21627;DHT22;10975;47.872;12.972;2022-08-19T10:15:41;24.10;99.90
21627;DHT22;10975;47.872;12.972;2022-08-19T10:18:14;24.00;99.90
21627;DHT22;10975;47.872;12.972;2022-08-19T10:20:40;23.90;99.90
21627;DHT22;10975;47.872;12.972;2022-08-19T10:23:09;23.90;99.90
21627;DHT22;10975;47.872;12.972;2022-08-19T10:25:35;23.90;99.90
21627;DHT22;10975;47.872;12.972;2022-08-19T10:28:04;23.80;99.90
21627;DHT22;10975;47.872;12.972;2022-08-19T10:30:36;23.80;99.90
21627;DHT22;10975;47.872;12.972;2022-08-19T10:33:03;24.00;99.90
21627;DHT22;10975;47.872;12.972;2022-08-19T10:35:36;24.10;99.90
21627;DHT22;10975;47.872;12.972;2022-08-19T10:38:22;24.10;99.90
21627;DHT22;10975;47.872;12.972;2022-08-19T10:40:58;24.30;99.90
21627;DHT22;10975;47.872;12.972;2022-08-19T10:43:24;24.30;99.90
21627;DHT22;10975;47.872;12.972;2022-08-19T10:45:52;24.30;99.90
21627;DHT22;10975;47.872;12.972;2022-08-19T10:48:20;24.30;99.90
21627;DHT22;10975;47.872;12.972;2022-08-19T10:50:47;24.30;99.90
21627;DHT22;10975;47.872;12.972;2022-08-19T10:53:32;24.30;99.90
21627;DHT22;10975;47.872;12.972;2022-08-19T10:56:01;24.50;99.90
21627;DHT22;10975;47.872;12.972;2022-08-19T10:58:51;24.60;99.90
21627;DHT22;10975;47.872;12.972;2022-08-19T11:01:18;24.60;99.90
21627;DHT22;10975;47.872;12.972;2022-08-19T11:03:45;24.50;99.90
21627;DHT22;10975;47.872;12.972;2022-08-19T11:06:11;24.50;99.90
21627;DHT22;10975;47.872;12.972;2022-08-19T11:08:38;24.40;99.90
21627;DHT22;10975;47.872;12.972;2022-08-19T11:11:06;24.50;99.90
21627;DHT22;10975;47.872;12.972;2022-08-19T11:13:35;24.70;99.90
21627;DHT22;10975;47.872;12.972;2022-08-19T11:16:05;24.80;99.90
21627;DHT22;10975;47.872;12.972;2022-08-19T11:18:35;24.80;99.90
21627;DHT22;10975;47.872;12.972;2022-08-19T11:23:35;25.20;99.90
21627;DHT22;10975;47.872;12.972;2022-08-19T11:26:02;25.00;99.90
21627;DHT22;10975;47.872;12.972;2022-08-19T11:28:29;24.90;99.90
21627;DHT22;10975;47.872;12.972;2022-08-19T11:30:56;24.80;99.90
21627;DHT22;10975;47.872;12.972;2022-08-19T11:33:23;24.70;99.90
21627;DHT22;10975;47.872;12.972;2022-08-19T11:35:53;24.90;99.90
21627;DHT22;10975;47.872;12.972;2022-08-19T11:38:20;25.00;99.90
21627;DHT22;10975;47.872;12.972;2022-08-19T11:40:53;25.00;99.90
21627;DHT22;10975;47.872;12.972;2022-08-19T11:43:20;25.10;99.90
21627;DHT22;10975;47.872;12.972;2022-08-19T11:45:47;25.00;99.90
21627;DHT22;10975;47.872;12.972;2022-08-19T11:48:15;25.00;99.90
21627;DHT22;10975;47.872;12.972;2022-08-19T11:50:42;25.10;99.90
21627;DHT22;10975;47.872;12.972;2022-08-19T11:53:09;25.20;99.90
21627;DHT22;10975;47.872;12.972;2022-08-19T11:55:37;25.50;99.90
21627;DHT22;10975;47.872;12.972;2022-08-19T11:58:10;25.80;99.90
21627;DHT22;10975;47.872;12.972;2022-08-19T12:00:44;26.00;99.90
21627;DHT22;10975;47.872;12.972;2022-08-19T12:03:12;26.00;99.90
21627;DHT22;10975;47.872;12.972;2022-08-19T12:05:40;26.00;99.90
21627;DHT22;10975;47.872;12.972;2022-08-19T12:08:07;25.90;99.90
21627;DHT22;10975;47.872;12.972;2022-08-19T12:10:34;26.00;99.90
21627;DHT22;10975;47.872;12.972;2022-08-19T12:13:01;26.10;99.90
21627;DHT22;10975;47.872;12.972;2022-08-19T12:15:28;26.10;99.90
21627;DHT22;10975;47.872;12.972;2022-08-19T12:18:03;26.20;99.90
21627;DHT22;10975;47.872;12.972;2022-08-19T12:20:29;26.20;99.90
21627;DHT22;10975;47.872;12.972;2022-08-19T12:22:58;26.10;99.90
21627;DHT22;10975;47.872;12.972;2022-08-19T12:25:26;26.10;99.90
21627;DHT22;10975;47.872;12.972;2022-08-19T12:27:53;26.00;99.90
21627;DHT22;10975;47.872;12.972;2022-08-19T12:30:23;25.90;99.90
21627;DHT22;10975;47.872;12.972;2022-08-19T12:32:50;26.00;99.90
21627;DHT22;10975;47.872;12.972;2022-08-19T12:35:18;26.00;99.90
21627;DHT22;10975;47.872;12.972;2022-08-19T12:37:47;25.90;99.90
21627;DHT22;10975;47.872;12.972;2022-08-19T12:40:23;25.90;99.90
21627;DHT22;10975;47.872;12.972;2022-08-19T12:42:52;25.90;99.90
21627;DHT22;10975;47.872;12.972;2022-08-19T12:45:19;25.80;99.90
21627;DHT22;10975;47.872;12.972;2022-08-19T12:47:46;25.90;99.90
21627;DHT22;10975;47.872;12.972;2022-08-19T12:50:15;25.90;99.90
21627;DHT22;10975;47.872;12.972;2022-08-19T12:52:41;26.10;99.90
21627;DHT22;10975;47.872;12.972;2022-08-19T12:55:09;26.20;99.90
21627;DHT22;10975;47.872;12.972;2022-08-19T12:57:37;26.20;99.90
21627;DHT22;10975;47.872;12.972;2022-08-19T13:02:32;25.90;99.90
21627;DHT22;10975;47.872;12.972;2022-08-19T13:05:05;26.10;99.90
21627;DHT22;10975;47.872;12.972;2022-08-19T13:07:34;26.00;99.90
21627;DHT22;10975;47.872;12.972;2022-08-19T13:10:01;26.10;99.90
21627;DHT22;10975;47.872;12.972;2022-08-19T13:12:28;26.20;99.90
21627;DHT22;10975;47.872;12.972;2022-08-19T13:14:55;26.30;99.90
21627;DHT22;10975;47.872;12.972;2022-08-19T13:17:21;26.20;99.90
21627;DHT22;10975;47.872;12.972;2022-08-19T13:19:49;26.10;99.90
21627;DHT22;10975;47.872;12.972;2022-08-19T13:22:17;26.10;99.90
21627;DHT22;10975;47.872;12.972;2022-08-19T13:24:44;26.00;99.90
21627;DHT22;10975;47.872;12.972;2022-08-19T13:27:13;26.00;99.90
21627;DHT22;10975;47.872;12.972;2022-08-19T13:29:40;26.00;99.90
21627;DHT22;10975;47.872;12.972;2022-08-19T13:32:25;25.90;99.90
21627;DHT22;10975;47.872;12.972;2022-08-19T13:35:11;25.90;99.90
21627;DHT22;10975;47.872;12.972;2022-08-19T13:37:42;25.70;99.90
21627;DHT22;10975;47.872;12.972;2022-08-19T13:40:11;25.60;99.90
21627;DHT22;10975;47.872;12.972;2022-08-19T13:42:41;25.60;99.90
21627;DHT22;10975;47.872;12.972;2022-08-19T13:45:08;25.70;99.90
21627;DHT22;10975;47.872;12.972;2022-08-19T13:47:36;25.70;99.90
21627;DHT22;10975;47.872;12.972;2022-08-19T13:50:10;25.70;99.90
21627;DHT22;10975;47.872;12.972;2022-08-19T13:52:38;25.60;99.90
21627;DHT22;10975;47.872;12.972;2022-08-19T13:55:05;25.60;99.90
21627;DHT22;10975;47.872;12.972;2022-08-19T13:57:33;25.60;99.90
21627;DHT22;10975;47.872;12.972;2022-08-19T13:59:59;25.50;99.90
21627;DHT22;10975;47.872;12.972;2022-08-19T14:02:27;25.60;99.90
21627;DHT22;10975;47.872;12.972;2022-08-19T14:04:53;25.60;99.90
21627;DHT22;10975;47.872;12.972;2022-08-19T14:07:20;25.60;99.90
21627;DHT22;10975;47.872;12.972;2022-08-19T14:09:50;25.60;99.90
21627;DHT22;10975;47.872;12.972;2022-08-19T14:12:20;25.60;99.90
21627;DHT22;10975;47.872;12.972;2022-08-19T14:14:54;25.70;99.90
21627;DHT22;10975;47.872;12.972;2022-08-19T14:17:21;25.70;99.90
21627;DHT22;10975;47.872;12.972;2022-08-19T14:19:48;25.70;99.90
21627;DHT22;10975;47.872;12.972;2022-08-19T14:22:15;25.60;99.90
21627;DHT22;10975;47.872;12.972;2022-08-19T14:24:47;25.60;99.90
21627;DHT22;10975;47.872;12.972;2022-08-19T14:27:14;25.60;99.90
21627;DHT22;10975;47.872;12.972;2022-08-19T14:29:41;25.60;99.90
21627;DHT22;10975;47.872;12.972;2022-08-19T14:32:08;25.50;99.90
21627;DHT22;10975;47.872;12.972;2022-08-19T14:34:42;25.40;99.90
21627;DHT22;10975;47.872;12.972;2022-08-19T14:37:12;25.40;99.90
21627;DHT22;10975;47.872;12.972;2022-08-19T14:39:41;25.20;99.90
21627;DHT22;10975;47.872;12.972;2022-08-19T14:42:08;25.20;99.90
21627;DHT22;10975;47.872;12.972;2022-08-19T14:44:37;25.20;99.90
21627;DHT22;10975;47.872;12.972;2022-08-19T14:47:04;25.20;99.90
21627;DHT22;10975;47.872;12.972;2022-08-19T14:49:35;25.10;99.90
21627;DHT22;10975;47.872;12.972;2022-08-19T14:52:13;25.10;99.90
21627;DHT22;10975;47.872;12.972;2022-08-19T14:54:40;25.20;99.90
21627;DHT22;10975;47.872;12.972;2022-08-19T14:57:07;25.10;99.90
21627;DHT22;10975;47.872;12.972;2022-08-19T14:59:34;25.20;99.90
21627;DHT22;10975;47.872;12.972;2022-08-19T15:02:01;25.10;99.90
21627;DHT22;10975;47.872;12.972;2022-08-19T15:04:47;25.00;99.90
21627;DHT22;10975;47.872;12.972;2022-08-19T15:07:24;24.70;99.90
21627;DHT22;10975;47.872;12.972;2022-08-19T15:09:55;24.50;99.90
21627;DHT22;10975;47.872;12.972;2022-08-19T15:12:21;24.50;99.90
21627;DHT22;10975;47.872;12.972;2022-08-19T15:14:49;24.50;99.90
21627;DHT22;10975;47.872;12.972;2022-08-19T15:17:22;24.50;99.90
21627;DHT22;10975;47.872;12.972;2022-08-19T15:20:09;24.30;99.90
21627;DHT22;10975;47.872;12.972;2022-08-19T15:22:36;24.20;99.90
21627;DHT22;10975;47.872;12.972;2022-08-19T15:25:04;24.10;99.90
21627;DHT22;10975;47.872;12.972;2022-08-19T15:27:31;24.00;99.90
21627;DHT22;10975;47.872;12.972;2022-08-19T15:29:58;23.90;99.90
21627;DHT22;10975;47.872;12.972;2022-08-19T15:32:27;23.80;99.90
21627;DHT22;10975;47.872;12.972;2022-08-19T15:34:54;23.70;99.90
21627;DHT22;10975;47.872;12.972;2022-08-19T15:37:21;23.50;99.90
21627;DHT22;10975;47.872;12.972;2022-08-19T15:39:49;23.40;99.90